sensor_id;sensor_type;location;lat;lon;timestamp;temperature;humidity
54578;DHT22;40474;49.330;8.130;2022-09-09T00:03:33;17.60;99.90
54578;DHT22;40474;49.330;8.130;2022-09-09T00:08:42;17.70;99.90
54578;DHT22;40474;49.330;8.130;2022-09-09T00:11:12;17.80;99.80
54578;DHT22;40474;49.330;8.130;2022-09-09T00:13:45;17.90;99.80
54578;DHT22;40474;49.330;8.130;2022-09-09T00:16:15;17.80;99.70
54578;DHT22;40474;49.330;8.130;2022-09-09T00:21:17;18.00;99.60
54578;DHT22;40474;49.330;8.130;2022-09-09T00:23:44;18.10;99.30
54578;DHT22;40474;49.330;8.130;2022-09-09T00:26:19;18.10;99.20
54578;DHT22;40474;49.330;8.130;2022-09-09T00:31:15;18.10;98.90
54578;DHT22;40474;49.330;8.130;2022-09-09T00:33:44;18.20;98.90
54578;DHT22;40474;49.330;8.130;2022-09-09T00:36:14;18.10;99.00
54578;DHT22;40474;49.330;8.130;2022-09-09T00:38:47;18.10;99.30
54578;DHT22;40474;49.330;8.130;2022-09-09T00:41:22;18.10;99.20
54578;DHT22;40474;49.330;8.130;2022-09-09T00:43:55;18.10;98.40
54578;DHT22;40474;49.330;8.130;2022-09-09T00:49:02;18.20;98.70
54578;DHT22;40474;49.330;8.130;2022-09-09T00:52:16;18.20;98.70
54578;DHT22;40474;49.330;8.130;2022-09-09T00:54:30;18.20;98.10
54578;DHT22;40474;49.330;8.130;2022-09-09T00:57:03;18.20;98.20
54578;DHT22;40474;49.330;8.130;2022-09-09T00:59:43;18.20;98.00
54578;DHT22;40474;49.330;8.130;2022-09-09T01:05:07;18.40;97.40
54578;DHT22;40474;49.330;8.130;2022-09-09T01:07:37;18.30;97.70
54578;DHT22;40474;49.330;8.130;2022-09-09T01:10:07;18.30;97.40
54578;DHT22;40474;49.330;8.130;2022-09-09T01:12:41;18.50;97.10
54578;DHT22;40474;49.330;8.130;2022-09-09T01:15:09;18.50;96.80
54578;DHT22;40474;49.330;8.130;2022-09-09T01:17:41;18.70;96.80
54578;DHT22;40474;49.330;8.130;2022-09-09T01:20:15;18.70;96.40
54578;DHT22;40474;49.330;8.130;2022-09-09T01:25:27;18.80;96.10
54578;DHT22;40474;49.330;8.130;2022-09-09T01:27:55;19.00;96.00
54578;DHT22;40474;49.330;8.130;2022-09-09T01:30:23;19.00;95.60
54578;DHT22;40474;49.330;8.130;2022-09-09T01:32:52;19.20;95.70
54578;DHT22;40474;49.330;8.130;2022-09-09T01:37:46;19.20;95.30
54578;DHT22;40474;49.330;8.130;2022-09-09T01:40:13;19.20;95.20
54578;DHT22;40474;49.330;8.130;2022-09-09T01:42:40;19.10;95.10
54578;DHT22;40474;49.330;8.130;2022-09-09T01:45:06;19.20;96.70
54578;DHT22;40474;49.330;8.130;2022-09-09T01:47:34;19.30;96.00
54578;DHT22;40474;49.330;8.130;2022-09-09T01:50:00;19.30;94.90
54578;DHT22;40474;49.330;8.130;2022-09-09T01:52:27;19.20;95.00
54578;DHT22;40474;49.330;8.130;2022-09-09T01:54:54;19.20;95.10
54578;DHT22;40474;49.330;8.130;2022-09-09T02:00:04;19.00;95.20
54578;DHT22;40474;49.330;8.130;2022-09-09T02:02:48;19.00;95.60
54578;DHT22;40474;49.330;8.130;2022-09-09T02:08:08;18.80;96.20
54578;DHT22;40474;49.330;8.130;2022-09-09T02:10:55;18.80;95.90
54578;DHT22;40474;49.330;8.130;2022-09-09T02:13:23;18.70;95.80
54578;DHT22;40474;49.330;8.130;2022-09-09T02:15:57;18.70;95.90
54578;DHT22;40474;49.330;8.130;2022-09-09T02:18:28;18.80;95.50
54578;DHT22;40474;49.330;8.130;2022-09-09T02:20:56;18.80;95.40
54578;DHT22;40474;49.330;8.130;2022-09-09T02:23:24;18.80;95.40
54578;DHT22;40474;49.330;8.130;2022-09-09T02:25:51;18.80;96.10
54578;DHT22;40474;49.330;8.130;2022-09-09T02:28:19;18.80;95.30
54578;DHT22;40474;49.330;8.130;2022-09-09T02:30:47;18.80;95.80
54578;DHT22;40474;49.330;8.130;2022-09-09T02:33:15;18.80;95.30
54578;DHT22;40474;49.330;8.130;2022-09-09T02:35:42;18.70;95.30
54578;DHT22;40474;49.330;8.130;2022-09-09T02:38:10;18.60;95.50
54578;DHT22;40474;49.330;8.130;2022-09-09T02:40:38;18.70;95.90
54578;DHT22;40474;49.330;8.130;2022-09-09T02:43:05;18.70;95.40
54578;DHT22;40474;49.330;8.130;2022-09-09T02:45:38;18.70;96.30
54578;DHT22;40474;49.330;8.130;2022-09-09T02:48:12;18.80;95.70
54578;DHT22;40474;49.330;8.130;2022-09-09T02:53:38;18.50;96.60
54578;DHT22;40474;49.330;8.130;2022-09-09T02:56:13;18.10;98.30
54578;DHT22;40474;49.330;8.130;2022-09-09T02:58:41;17.80;99.50
54578;DHT22;40474;49.330;8.130;2022-09-09T03:01:08;17.60;99.90
54578;DHT22;40474;49.330;8.130;2022-09-09T03:03:35;17.40;99.90
54578;DHT22;40474;49.330;8.130;2022-09-09T03:06:02;17.20;99.90
54578;DHT22;40474;49.330;8.130;2022-09-09T03:08:28;17.10;99.90
54578;DHT22;40474;49.330;8.130;2022-09-09T03:10:55;16.90;99.90
54578;DHT22;40474;49.330;8.130;2022-09-09T03:13:22;16.80;99.90
54578;DHT22;40474;49.330;8.130;2022-09-09T03:15:48;16.70;99.90
54578;DHT22;40474;49.330;8.130;2022-09-09T03:18:15;16.70;99.90
54578;DHT22;40474;49.330;8.130;2022-09-09T03:20:41;16.70;99.90
54578;DHT22;40474;49.330;8.130;2022-09-09T03:23:08;16.60;99.90
54578;DHT22;40474;49.330;8.130;2022-09-09T03:25:46;16.50;99.90
54578;DHT22;40474;49.330;8.130;2022-09-09T03:28:12;16.60;99.90
54578;DHT22;40474;49.330;8.130;2022-09-09T03:30:39;16.50;99.90
54578;DHT22;40474;49.330;8.130;2022-09-09T03:33:06;16.50;99.90
54578;DHT22;40474;49.330;8.130;2022-09-09T03:35:32;16.40;99.90
54578;DHT22;40474;49.330;8.130;2022-09-09T03:37:59;16.40;99.90
54578;DHT22;40474;49.330;8.130;2022-09-09T03:40:27;16.40;99.90
54578;DHT22;40474;49.330;8.130;2022-09-09T03:49:37;16.20;99.90
54578;DHT22;40474;49.330;8.130;2022-09-09T03:52:04;16.20;99.90
54578;DHT22;40474;49.330;8.130;2022-09-09T03:54:31;16.10;99.90
54578;DHT22;40474;49.330;8.130;2022-09-09T03:56:57;16.20;99.90
54578;DHT22;40474;49.330;8.130;2022-09-09T03:59:24;16.20;99.90
54578;DHT22;40474;49.330;8.130;2022-09-09T04:01:51;16.20;99.90
54578;DHT22;40474;49.330;8.130;2022-09-09T04:04:18;16.10;99.90
54578;DHT22;40474;49.330;8.130;2022-09-09T04:06:46;16.10;99.90
54578;DHT22;40474;49.330;8.130;2022-09-09T04:09:14;16.10;99.90
54578;DHT22;40474;49.330;8.130;2022-09-09T04:11:41;16.20;99.90
54578;DHT22;40474;49.330;8.130;2022-09-09T04:14:07;16.20;99.90
54578;DHT22;40474;49.330;8.130;2022-09-09T04:16:35;16.30;99.90
54578;DHT22;40474;49.330;8.130;2022-09-09T04:19:04;16.30;99.90
54578;DHT22;40474;49.330;8.130;2022-09-09T04:21:30;16.30;99.90
54578;DHT22;40474;49.330;8.130;2022-09-09T04:23:57;16.20;99.90
54578;DHT22;40474;49.330;8.130;2022-09-09T04:26:24;16.30;99.90
54578;DHT22;40474;49.330;8.130;2022-09-09T04:28:50;16.30;99.90
54578;DHT22;40474;49.330;8.130;2022-09-09T04:31:18;16.20;99.90
54578;DHT22;40474;49.330;8.130;2022-09-09T04:33:46;16.20;99.90
54578;DHT22;40474;49.330;8.130;2022-09-09T04:36:13;16.20;99.90
54578;DHT22;40474;49.330;8.130;2022-09-09T04:38:40;16.20;99.90
54578;DHT22;40474;49.330;8.130;2022-09-09T04:41:06;16.20;99.90
54578;DHT22;40474;49.330;8.130;2022-09-09T04:43:34;16.20;99.90
54578;DHT22;40474;49.330;8.130;2022-09-09T04:46:00;16.30;99.90
54578;DHT22;40474;49.330;8.130;2022-09-09T04:48:28;16.40;99.90
54578;DHT22;40474;49.330;8.130;2022-09-09T04:50:58;16.50;99.90
54578;DHT22;40474;49.330;8.130;2022-09-09T04:53:25;16.60;99.90
54578;DHT22;40474;49.330;8.130;2022-09-09T04:55:52;16.60;99.90
54578;DHT22;40474;49.330;8.130;2022-09-09T04:58:19;16.70;99.90
54578;DHT22;40474;49.330;8.130;2022-09-09T05:00:48;17.00;99.90
54578;DHT22;40474;49.330;8.130;2022-09-09T05:03:15;17.20;99.90
54578;DHT22;40474;49.330;8.130;2022-09-09T05:05:41;17.30;99.90
54578;DHT22;40474;49.330;8.130;2022-09-09T05:08:08;17.40;99.90
54578;DHT22;40474;49.330;8.130;2022-09-09T05:10:36;17.40;99.90
54578;DHT22;40474;49.330;8.130;2022-09-09T05:13:03;17.30;99.90
54578;DHT22;40474;49.330;8.130;2022-09-09T05:15:30;17.40;99.90
54578;DHT22;40474;49.330;8.130;2022-09-09T05:17:58;17.50;99.90
54578;DHT22;40474;49.330;8.130;2022-09-09T05:20:26;17.50;99.90
54578;DHT22;40474;49.330;8.130;2022-09-09T05:22:56;17.50;99.90
54578;DHT22;40474;49.330;8.130;2022-09-09T05:25:23;17.50;99.90
54578;DHT22;40474;49.330;8.130;2022-09-09T05:27:51;17.40;99.90
54578;DHT22;40474;49.330;8.130;2022-09-09T05:30:18;17.50;99.90
54578;DHT22;40474;49.330;8.130;2022-09-09T05:32:46;17.60;99.90
54578;DHT22;40474;49.330;8.130;2022-09-09T05:35:14;17.60;99.90
54578;DHT22;40474;49.330;8.130;2022-09-09T05:37:41;17.60;99.90
54578;DHT22;40474;49.330;8.130;2022-09-09T05:40:07;17.60;99.90
54578;DHT22;40474;49.330;8.130;2022-09-09T05:42:34;17.70;99.90
54578;DHT22;40474;49.330;8.130;2022-09-09T05:45:01;17.80;99.90
54578;DHT22;40474;49.330;8.130;2022-09-09T05:47:27;18.10;99.90
54578;DHT22;40474;49.330;8.130;2022-09-09T05:49:54;18.20;99.90
54578;DHT22;40474;49.330;8.130;2022-09-09T05:52:21;18.10;99.90
54578;DHT22;40474;49.330;8.130;2022-09-09T05:54:49;17.90;99.90
54578;DHT22;40474;49.330;8.130;2022-09-09T05:57:15;17.80;99.90
54578;DHT22;40474;49.330;8.130;2022-09-09T05:59:42;17.80;99.90
54578;DHT22;40474;49.330;8.130;2022-09-09T06:02:09;17.80;99.90
54578;DHT22;40474;49.330;8.130;2022-09-09T06:04:35;17.90;99.90
54578;DHT22;40474;49.330;8.130;2022-09-09T06:07:02;17.90;99.90
54578;DHT22;40474;49.330;8.130;2022-09-09T06:09:29;18.00;99.90
54578;DHT22;40474;49.330;8.130;2022-09-09T06:11:57;18.00;99.90
54578;DHT22;40474;49.330;8.130;2022-09-09T06:14:24;17.80;99.90
54578;DHT22;40474;49.330;8.130;2022-09-09T06:16:51;17.70;99.90
54578;DHT22;40474;49.330;8.130;2022-09-09T06:19:18;17.80;99.90
54578;DHT22;40474;49.330;8.130;2022-09-09T06:21:46;18.00;99.90
54578;DHT22;40474;49.330;8.130;2022-09-09T06:24:14;18.30;99.90
54578;DHT22;40474;49.330;8.130;2022-09-09T06:26:43;18.40;99.90
54578;DHT22;40474;49.330;8.130;2022-09-09T06:29:10;18.30;99.90
54578;DHT22;40474;49.330;8.130;2022-09-09T06:31:37;18.20;99.90
54578;DHT22;40474;49.330;8.130;2022-09-09T06:34:05;18.00;99.90
54578;DHT22;40474;49.330;8.130;2022-09-09T06:36:33;18.00;99.90
54578;DHT22;40474;49.330;8.130;2022-09-09T06:39:00;18.80;99.90
54578;DHT22;40474;49.330;8.130;2022-09-09T06:41:28;19.30;99.30
54578;DHT22;40474;49.330;8.130;2022-09-09T06:43:55;19.50;98.90
54578;DHT22;40474;49.330;8.130;2022-09-09T06:46:26;19.60;98.40
54578;DHT22;40474;49.330;8.130;2022-09-09T06:48:57;19.90;97.00
54578;DHT22;40474;49.330;8.130;2022-09-09T06:51:28;20.30;97.40
54578;DHT22;40474;49.330;8.130;2022-09-09T06:53:56;20.30;95.70
54578;DHT22;40474;49.330;8.130;2022-09-09T06:56:27;20.10;95.10
54578;DHT22;40474;49.330;8.130;2022-09-09T06:58:55;20.10;95.80
54578;DHT22;40474;49.330;8.130;2022-09-09T07:01:23;20.30;96.30
54578;DHT22;40474;49.330;8.130;2022-09-09T07:03:50;21.00;94.70
54578;DHT22;40474;49.330;8.130;2022-09-09T07:06:24;21.40;94.00
54578;DHT22;40474;49.330;8.130;2022-09-09T07:08:52;21.30;93.90
54578;DHT22;40474;49.330;8.130;2022-09-09T07:11:23;21.20;94.10
54578;DHT22;40474;49.330;8.130;2022-09-09T07:13:50;20.90;94.00
54578;DHT22;40474;49.330;8.130;2022-09-09T07:16:17;20.60;94.40
54578;DHT22;40474;49.330;8.130;2022-09-09T07:18:44;20.50;95.10
54578;DHT22;40474;49.330;8.130;2022-09-09T07:21:11;20.60;95.60
54578;DHT22;40474;49.330;8.130;2022-09-09T07:23:40;20.50;95.00
54578;DHT22;40474;49.330;8.130;2022-09-09T07:26:11;20.40;96.10
54578;DHT22;40474;49.330;8.130;2022-09-09T07:28:38;20.30;96.70
54578;DHT22;40474;49.330;8.130;2022-09-09T07:31:06;20.10;97.00
54578;DHT22;40474;49.330;8.130;2022-09-09T07:33:33;20.20;96.90
54578;DHT22;40474;49.330;8.130;2022-09-09T07:36:08;20.30;96.80
54578;DHT22;40474;49.330;8.130;2022-09-09T07:38:39;20.20;97.10
54578;DHT22;40474;49.330;8.130;2022-09-09T07:41:10;20.30;96.80
54578;DHT22;40474;49.330;8.130;2022-09-09T07:43:43;20.30;97.00
54578;DHT22;40474;49.330;8.130;2022-09-09T07:46:11;20.10;97.70
54578;DHT22;40474;49.330;8.130;2022-09-09T07:48:43;19.90;99.10
54578;DHT22;40474;49.330;8.130;2022-09-09T07:51:14;19.70;99.90
54578;DHT22;40474;49.330;8.130;2022-09-09T07:53:43;19.50;99.90
54578;DHT22;40474;49.330;8.130;2022-09-09T07:56:11;19.60;99.90
54578;DHT22;40474;49.330;8.130;2022-09-09T07:58:38;19.60;99.90
54578;DHT22;40474;49.330;8.130;2022-09-09T08:01:49;19.50;99.90
54578;DHT22;40474;49.330;8.130;2022-09-09T08:04:00;19.60;99.90
54578;DHT22;40474;49.330;8.130;2022-09-09T08:06:31;19.60;99.90
54578;DHT22;40474;49.330;8.130;2022-09-09T08:08:59;19.80;99.90
54578;DHT22;40474;49.330;8.130;2022-09-09T08:11:26;19.80;99.90
54578;DHT22;40474;49.330;8.130;2022-09-09T08:13:53;20.40;99.70
54578;DHT22;40474;49.330;8.130;2022-09-09T08:16:28;21.40;97.30
54578;DHT22;40474;49.330;8.130;2022-09-09T08:18:56;22.20;95.70
54578;DHT22;40474;49.330;8.130;2022-09-09T08:21:26;22.20;94.60
54578;DHT22;40474;49.330;8.130;2022-09-09T08:23:55;22.10;94.90
54578;DHT22;40474;49.330;8.130;2022-09-09T08:26:24;21.70;95.10
54578;DHT22;40474;49.330;8.130;2022-09-09T08:28:52;21.60;94.80
54578;DHT22;40474;49.330;8.130;2022-09-09T08:33:46;21.20;95.30
54578;DHT22;40474;49.330;8.130;2022-09-09T08:36:13;21.30;94.40
54578;DHT22;40474;49.330;8.130;2022-09-09T08:38:42;22.20;93.90
54578;DHT22;40474;49.330;8.130;2022-09-09T08:43:50;22.60;92.20
54578;DHT22;40474;49.330;8.130;2022-09-09T08:46:46;22.50;92.60
54578;DHT22;40474;49.330;8.130;2022-09-09T08:49:28;23.70;91.80
54578;DHT22;40474;49.330;8.130;2022-09-09T08:51:59;26.00;82.80
54578;DHT22;40474;49.330;8.130;2022-09-09T08:54:27;25.90;77.00
54578;DHT22;40474;49.330;8.130;2022-09-09T08:57:16;25.90;80.70
54578;DHT22;40474;49.330;8.130;2022-09-09T08:59:46;25.60;81.70
54578;DHT22;40474;49.330;8.130;2022-09-09T09:02:15;24.80;85.00
54578;DHT22;40474;49.330;8.130;2022-09-09T09:13:03;21.90;95.50
54578;DHT22;40474;49.330;8.130;2022-09-09T09:15:36;21.10;97.70
54578;DHT22;40474;49.330;8.130;2022-09-09T09:18:04;20.70;99.90
54578;DHT22;40474;49.330;8.130;2022-09-09T09:23:22;20.40;99.40
54578;DHT22;40474;49.330;8.130;2022-09-09T09:25:50;20.50;97.30
54578;DHT22;40474;49.330;8.130;2022-09-09T09:28:23;20.50;98.50
54578;DHT22;40474;49.330;8.130;2022-09-09T09:30:55;20.20;99.30
54578;DHT22;40474;49.330;8.130;2022-09-09T09:33:26;20.10;99.90
54578;DHT22;40474;49.330;8.130;2022-09-09T09:35:54;20.10;99.90
54578;DHT22;40474;49.330;8.130;2022-09-09T09:38:21;20.50;99.50
54578;DHT22;40474;49.330;8.130;2022-09-09T09:41:08;21.10;98.60
54578;DHT22;40474;49.330;8.130;2022-09-09T09:43:36;22.00;95.90
54578;DHT22;40474;49.330;8.130;2022-09-09T09:46:04;24.40;93.40
54578;DHT22;40474;49.330;8.130;2022-09-09T09:48:43;26.80;90.00
54578;DHT22;40474;49.330;8.130;2022-09-09T09:51:13;28.70;73.90
54578;DHT22;40474;49.330;8.130;2022-09-09T09:53:42;29.00;65.80
54578;DHT22;40474;49.330;8.130;2022-09-09T09:56:12;29.30;64.50
54578;DHT22;40474;49.330;8.130;2022-09-09T10:01:28;30.30;62.30
54578;DHT22;40474;49.330;8.130;2022-09-09T10:03:59;30.60;60.90
54578;DHT22;40474;49.330;8.130;2022-09-09T10:06:33;30.90;56.90
54578;DHT22;40474;49.330;8.130;2022-09-09T10:09:01;31.30;57.00
54578;DHT22;40474;49.330;8.130;2022-09-09T10:11:35;32.50;53.00
54578;DHT22;40474;49.330;8.130;2022-09-09T10:14:24;33.20;52.20
54578;DHT22;40474;49.330;8.130;2022-09-09T10:16:55;33.20;49.70
54578;DHT22;40474;49.330;8.130;2022-09-09T10:19:31;33.40;49.40
54578;DHT22;40474;49.330;8.130;2022-09-09T10:22:05;33.80;48.90
54578;DHT22;40474;49.330;8.130;2022-09-09T10:24:44;34.20;45.80
54578;DHT22;40474;49.330;8.130;2022-09-09T10:32:40;34.40;44.30
54578;DHT22;40474;49.330;8.130;2022-09-09T10:43:08;29.90;50.00
54578;DHT22;40474;49.330;8.130;2022-09-09T10:45:41;29.00;52.50
54578;DHT22;40474;49.330;8.130;2022-09-09T10:48:14;28.10;54.10
54578;DHT22;40474;49.330;8.130;2022-09-09T10:50:53;27.30;56.30
54578;DHT22;40474;49.330;8.130;2022-09-09T10:53:35;26.60;56.90
54578;DHT22;40474;49.330;8.130;2022-09-09T10:56:05;26.50;60.00
54578;DHT22;40474;49.330;8.130;2022-09-09T10:59:17;26.60;60.10
54578;DHT22;40474;49.330;8.130;2022-09-09T11:01:31;26.20;60.20
54578;DHT22;40474;49.330;8.130;2022-09-09T11:04:04;25.80;60.30
54578;DHT22;40474;49.330;8.130;2022-09-09T11:06:34;25.80;61.70
54578;DHT22;40474;49.330;8.130;2022-09-09T11:09:03;25.60;62.90
54578;DHT22;40474;49.330;8.130;2022-09-09T11:11:33;25.50;62.30
54578;DHT22;40474;49.330;8.130;2022-09-09T11:14:21;25.20;63.20
54578;DHT22;40474;49.330;8.130;2022-09-09T11:16:53;25.40;64.00
54578;DHT22;40474;49.330;8.130;2022-09-09T11:19:34;25.60;64.00
54578;DHT22;40474;49.330;8.130;2022-09-09T11:22:12;25.60;63.70
54578;DHT22;40474;49.330;8.130;2022-09-09T11:24:43;25.90;63.20
54578;DHT22;40474;49.330;8.130;2022-09-09T11:29:44;28.10;56.90
54578;DHT22;40474;49.330;8.130;2022-09-09T11:35:17;30.40;52.60
54578;DHT22;40474;49.330;8.130;2022-09-09T11:37:54;30.80;50.40
54578;DHT22;40474;49.330;8.130;2022-09-09T11:40:28;30.00;51.70
54578;DHT22;40474;49.330;8.130;2022-09-09T11:43:09;28.60;51.30
54578;DHT22;40474;49.330;8.130;2022-09-09T11:45:39;27.60;55.60
54578;DHT22;40474;49.330;8.130;2022-09-09T11:48:26;26.80;59.10
54578;DHT22;40474;49.330;8.130;2022-09-09T11:50:59;26.50;60.60
54578;DHT22;40474;49.330;8.130;2022-09-09T11:53:26;26.50;62.20
54578;DHT22;40474;49.330;8.130;2022-09-09T11:56:10;26.70;62.00
54578;DHT22;40474;49.330;8.130;2022-09-09T11:58:40;26.80;61.00
54578;DHT22;40474;49.330;8.130;2022-09-09T12:01:14;27.80;60.20
54578;DHT22;40474;49.330;8.130;2022-09-09T12:03:45;28.20;57.40
54578;DHT22;40474;49.330;8.130;2022-09-09T12:06:39;27.90;57.70
54578;DHT22;40474;49.330;8.130;2022-09-09T12:09:16;27.70;59.20
54578;DHT22;40474;49.330;8.130;2022-09-09T12:11:47;27.80;54.50
54578;DHT22;40474;49.330;8.130;2022-09-09T12:14:55;28.10;55.00
54578;DHT22;40474;49.330;8.130;2022-09-09T12:17:23;28.50;53.10
54578;DHT22;40474;49.330;8.130;2022-09-09T12:20:01;28.00;55.30
54578;DHT22;40474;49.330;8.130;2022-09-09T12:25:20;26.60;59.50
54578;DHT22;40474;49.330;8.130;2022-09-09T12:28:05;25.90;61.40
54578;DHT22;40474;49.330;8.130;2022-09-09T12:30:46;25.50;62.60
54578;DHT22;40474;49.330;8.130;2022-09-09T12:33:16;25.20;62.70
54578;DHT22;40474;49.330;8.130;2022-09-09T12:35:44;25.10;64.60
54578;DHT22;40474;49.330;8.130;2022-09-09T12:38:13;24.90;65.30
54578;DHT22;40474;49.330;8.130;2022-09-09T12:40:42;24.60;65.30
54578;DHT22;40474;49.330;8.130;2022-09-09T12:43:18;24.50;66.20
54578;DHT22;40474;49.330;8.130;2022-09-09T12:45:48;24.40;65.70
54578;DHT22;40474;49.330;8.130;2022-09-09T12:48:17;24.40;66.90
54578;DHT22;40474;49.330;8.130;2022-09-09T12:50:48;25.20;64.80
54578;DHT22;40474;49.330;8.130;2022-09-09T12:53:23;27.00;57.10
54578;DHT22;40474;49.330;8.130;2022-09-09T12:55:54;28.80;55.30
54578;DHT22;40474;49.330;8.130;2022-09-09T12:58:22;29.30;52.60
54578;DHT22;40474;49.330;8.130;2022-09-09T13:00:50;29.80;47.20
54578;DHT22;40474;49.330;8.130;2022-09-09T13:03:19;30.60;47.30
54578;DHT22;40474;49.330;8.130;2022-09-09T13:05:47;31.50;47.30
54578;DHT22;40474;49.330;8.130;2022-09-09T13:08:14;31.10;45.80
54578;DHT22;40474;49.330;8.130;2022-09-09T13:10:46;31.40;45.30
54578;DHT22;40474;49.330;8.130;2022-09-09T13:13:20;31.50;45.00
54578;DHT22;40474;49.330;8.130;2022-09-09T13:15:48;31.60;43.30
54578;DHT22;40474;49.330;8.130;2022-09-09T13:18:15;31.60;44.80
54578;DHT22;40474;49.330;8.130;2022-09-09T13:20:49;31.80;45.30
54578;DHT22;40474;49.330;8.130;2022-09-09T13:23:18;31.10;45.80
54578;DHT22;40474;49.330;8.130;2022-09-09T13:25:52;29.40;47.20
54578;DHT22;40474;49.330;8.130;2022-09-09T13:28:20;29.30;48.30
54578;DHT22;40474;49.330;8.130;2022-09-09T13:33:38;30.30;48.00
54578;DHT22;40474;49.330;8.130;2022-09-09T13:36:09;29.50;45.90
54578;DHT22;40474;49.330;8.130;2022-09-09T13:38:59;28.40;47.80
54578;DHT22;40474;49.330;8.130;2022-09-09T13:41:24;28.20;51.70
54578;DHT22;40474;49.330;8.130;2022-09-09T13:43:52;28.00;49.80
54578;DHT22;40474;49.330;8.130;2022-09-09T13:46:32;27.30;48.70
54578;DHT22;40474;49.330;8.130;2022-09-09T13:49:00;26.80;53.40
54578;DHT22;40474;49.330;8.130;2022-09-09T13:51:39;26.50;53.00
54578;DHT22;40474;49.330;8.130;2022-09-09T13:54:06;26.90;55.50
54578;DHT22;40474;49.330;8.130;2022-09-09T13:56:35;27.00;53.10
54578;DHT22;40474;49.330;8.130;2022-09-09T13:59:03;26.80;52.30
54578;DHT22;40474;49.330;8.130;2022-09-09T14:01:30;26.30;52.70
54578;DHT22;40474;49.330;8.130;2022-09-09T14:03:57;25.90;53.50
54578;DHT22;40474;49.330;8.130;2022-09-09T14:06:25;25.60;58.50
54578;DHT22;40474;49.330;8.130;2022-09-09T14:08:52;25.20;55.80
54578;DHT22;40474;49.330;8.130;2022-09-09T14:11:18;24.90;59.60
54578;DHT22;40474;49.330;8.130;2022-09-09T14:13:45;24.60;63.90
54578;DHT22;40474;49.330;8.130;2022-09-09T14:16:12;24.10;64.00
54578;DHT22;40474;49.330;8.130;2022-09-09T14:18:39;23.50;67.40
54578;DHT22;40474;49.330;8.130;2022-09-09T14:21:06;23.10;72.10
54578;DHT22;40474;49.330;8.130;2022-09-09T14:23:32;22.80;75.50
54578;DHT22;40474;49.330;8.130;2022-09-09T14:25:59;22.50;78.30
54578;DHT22;40474;49.330;8.130;2022-09-09T14:28:26;22.20;86.40
54578;DHT22;40474;49.330;8.130;2022-09-09T14:31:12;22.10;86.80
54578;DHT22;40474;49.330;8.130;2022-09-09T14:33:40;21.70;92.60
54578;DHT22;40474;49.330;8.130;2022-09-09T14:36:06;21.10;95.20
54578;DHT22;40474;49.330;8.130;2022-09-09T14:38:34;20.40;96.30
54578;DHT22;40474;49.330;8.130;2022-09-09T14:41:06;20.20;97.80
54578;DHT22;40474;49.330;8.130;2022-09-09T14:43:32;19.60;97.90
54578;DHT22;40474;49.330;8.130;2022-09-09T14:46:06;19.20;99.50
54578;DHT22;40474;49.330;8.130;2022-09-09T14:48:33;19.00;99.90
54578;DHT22;40474;49.330;8.130;2022-09-09T14:51:05;18.90;99.90
54578;DHT22;40474;49.330;8.130;2022-09-09T14:53:32;19.10;99.80
54578;DHT22;40474;49.330;8.130;2022-09-09T14:58:32;19.00;97.80
54578;DHT22;40474;49.330;8.130;2022-09-09T15:01:02;18.60;99.90
54578;DHT22;40474;49.330;8.130;2022-09-09T15:03:29;18.60;99.10
54578;DHT22;40474;49.330;8.130;2022-09-09T15:05:56;18.70;98.30
54578;DHT22;40474;49.330;8.130;2022-09-09T15:08:24;18.60;99.90
54578;DHT22;40474;49.330;8.130;2022-09-09T15:10:58;18.60;99.90
54578;DHT22;40474;49.330;8.130;2022-09-09T15:13:25;18.60;99.90
54578;DHT22;40474;49.330;8.130;2022-09-09T15:15:51;18.90;99.90
54578;DHT22;40474;49.330;8.130;2022-09-09T15:18:18;19.10;99.90
54578;DHT22;40474;49.330;8.130;2022-09-09T15:20:45;19.40;99.40
54578;DHT22;40474;49.330;8.130;2022-09-09T15:23:12;19.70;99.50
54578;DHT22;40474;49.330;8.130;2022-09-09T15:25:53;19.90;97.40
54578;DHT22;40474;49.330;8.130;2022-09-09T15:28:21;19.90;97.60
54578;DHT22;40474;49.330;8.130;2022-09-09T15:30:48;20.00;97.00
54578;DHT22;40474;49.330;8.130;2022-09-09T15:33:15;20.00;97.60
54578;DHT22;40474;49.330;8.130;2022-09-09T15:35:42;19.90;96.60
54578;DHT22;40474;49.330;8.130;2022-09-09T15:38:08;19.90;97.00
54578;DHT22;40474;49.330;8.130;2022-09-09T15:40:35;19.90;97.30
54578;DHT22;40474;49.330;8.130;2022-09-09T15:43:02;19.90;98.50
54578;DHT22;40474;49.330;8.130;2022-09-09T15:45:30;19.90;99.90
54578;DHT22;40474;49.330;8.130;2022-09-09T15:48:02;19.80;97.40
54578;DHT22;40474;49.330;8.130;2022-09-09T15:50:29;19.70;98.90
54578;DHT22;40474;49.330;8.130;2022-09-09T15:52:58;19.70;98.60
54578;DHT22;40474;49.330;8.130;2022-09-09T15:55:25;19.70;98.70
54578;DHT22;40474;49.330;8.130;2022-09-09T15:57:52;19.60;99.90
54578;DHT22;40474;49.330;8.130;2022-09-09T16:00:19;19.50;98.90
54578;DHT22;40474;49.330;8.130;2022-09-09T16:02:46;19.60;97.90
54578;DHT22;40474;49.330;8.130;2022-09-09T16:05:13;19.50;99.90
54578;DHT22;40474;49.330;8.130;2022-09-09T16:07:40;19.50;99.60
54578;DHT22;40474;49.330;8.130;2022-09-09T16:10:09;19.40;99.90
54578;DHT22;40474;49.330;8.130;2022-09-09T16:12:35;19.50;99.00
54578;DHT22;40474;49.330;8.130;2022-09-09T16:15:03;19.50;99.10
54578;DHT22;40474;49.330;8.130;2022-09-09T16:17:30;19.40;99.90
54578;DHT22;40474;49.330;8.130;2022-09-09T16:19:56;19.30;99.90
54578;DHT22;40474;49.330;8.130;2022-09-09T16:22:24;19.30;99.90
54578;DHT22;40474;49.330;8.130;2022-09-09T16:24:50;19.20;99.90
54578;DHT22;40474;49.330;8.130;2022-09-09T16:27:17;19.20;99.90
54578;DHT22;40474;49.330;8.130;2022-09-09T16:29:44;19.30;99.80
54578;DHT22;40474;49.330;8.130;2022-09-09T16:32:11;19.20;98.90
54578;DHT22;40474;49.330;8.130;2022-09-09T16:34:38;19.30;99.50
54578;DHT22;40474;49.330;8.130;2022-09-09T16:37:05;19.20;99.40
54578;DHT22;40474;49.330;8.130;2022-09-09T16:39:31;19.20;99.90
54578;DHT22;40474;49.330;8.130;2022-09-09T16:41:58;19.20;99.90
54578;DHT22;40474;49.330;8.130;2022-09-09T16:44:26;19.10;99.90
54578;DHT22;40474;49.330;8.130;2022-09-09T16:46:52;19.00;99.90
54578;DHT22;40474;49.330;8.130;2022-09-09T16:49:26;19.00;99.90
54578;DHT22;40474;49.330;8.130;2022-09-09T16:51:56;18.90;99.90
54578;DHT22;40474;49.330;8.130;2022-09-09T16:54:23;18.80;99.90
54578;DHT22;40474;49.330;8.130;2022-09-09T16:56:53;18.70;99.90
54578;DHT22;40474;49.330;8.130;2022-09-09T16:59:20;18.70;99.90
54578;DHT22;40474;49.330;8.130;2022-09-09T17:01:48;18.60;99.90
54578;DHT22;40474;49.330;8.130;2022-09-09T17:04:19;18.50;99.90
54578;DHT22;40474;49.330;8.130;2022-09-09T17:06:48;18.50;99.90
54578;DHT22;40474;49.330;8.130;2022-09-09T17:09:18;18.40;99.90